Aviation Digital Data Service (ADDS)

Output produced by METARs form (1328 UTC 23 January 2019)
found at http://www.aviationweather.gov/metar/data/
 
METAR text: EGSS 231320Z AUTO 32009KT 4100 BR OVC003 M00/M01 Q1003
Conditions at: EGSS (STANSTED AIRPORT, GB) observed 1320 UTC 23 January 2019
Temperature: 0.0°C (32°F)
Dewpoint: -1.0°C (30°F) [RH = 93%]
Pressure (altimeter): 29.62 inches Hg (1003.0 mb)
Winds: from the NW (320 degrees) at 10 MPH (9 knots; 4.6 m/s)
Visibility: 2.55 miles (4.10 km)
Ceiling: 300 feet AGL
Clouds: overcast cloud deck at 300 feet AGL
Weather: BR  (mist)

METAR text: EGSS 231250Z AUTO 33008KT 3700 BR OVC003 M00/M01 Q1003
Conditions at: EGSS (STANSTED AIRPORT, GB) observed 1250 UTC 23 January 2019
Temperature: 0.0°C (32°F)
Dewpoint: -1.0°C (30°F) [RH = 93%]
Pressure (altimeter): 29.62 inches Hg (1003.0 mb)
Winds: from the NNW (330 degrees) at 9 MPH (8 knots; 4.1 m/s)
Visibility: 2.30 miles (3.70 km)
Ceiling: 300 feet AGL
Clouds: overcast cloud deck at 300 feet AGL
Weather: BR  (mist)

METAR text: EGSS 231220Z AUTO 34008KT 3900 BR OVC004 M00/M01 Q1002
Conditions at: EGSS (STANSTED AIRPORT, GB) observed 1220 UTC 23 January 2019
Temperature: 0.0°C (32°F)
Dewpoint: -1.0°C (30°F) [RH = 93%]
Pressure (altimeter): 29.59 inches Hg (1002.0 mb)
Winds: from the NNW (340 degrees) at 9 MPH (8 knots; 4.1 m/s)
Visibility: 2.42 miles (3.89 km)
Ceiling: 400 feet AGL
Clouds: overcast cloud deck at 400 feet AGL
Weather: BR  (mist)

METAR text: EGSS 231150Z AUTO 34006KT 4700 BR OVC004 M00/M01 Q1002
Conditions at: EGSS (STANSTED AIRPORT, GB) observed 1150 UTC 23 January 2019
Temperature: 0.0°C (32°F)
Dewpoint: -1.0°C (30°F) [RH = 93%]
Pressure (altimeter): 29.59 inches Hg (1002.0 mb)
Winds: from the NNW (340 degrees) at 7 MPH (6 knots; 3.1 m/s)
Visibility: 2.92 miles (4.70 km)
Ceiling: 400 feet AGL
Clouds: overcast cloud deck at 400 feet AGL
Weather: BR  (mist)

METAR text: EGSS 231120Z AUTO 34007KT 2900 BR OVC002 M01/M01 Q1002
Conditions at: EGSS (STANSTED AIRPORT, GB) observed 1120 UTC 23 January 2019
Temperature: -1.0°C (30°F)
Dewpoint: -1.0°C (30°F) [RH = 100%]
Pressure (altimeter): 29.59 inches Hg (1002.0 mb)
Winds: from the NNW (340 degrees) at 8 MPH (7 knots; 3.6 m/s)
Visibility: 1.80 miles (2.90 km)
Ceiling: 200 feet AGL
Clouds: overcast cloud deck at 200 feet AGL
Weather: BR  (mist)

METAR text: EGSS 231050Z AUTO 34008KT 2200 BR OVC002 M01/M01 Q1002
Conditions at: EGSS (STANSTED AIRPORT, GB) observed 1050 UTC 23 January 2019
Temperature: -1.0°C (30°F)
Dewpoint: -1.0°C (30°F) [RH = 100%]
Pressure (altimeter): 29.59 inches Hg (1002.0 mb)
Winds: from the NNW (340 degrees) at 9 MPH (8 knots; 4.1 m/s)
Visibility: 1.37 miles (2.20 km)
Ceiling: 200 feet AGL
Clouds: overcast cloud deck at 200 feet AGL
Weather: BR  (mist)

METAR text: EGSS 231020Z AUTO 35008KT 3400 BR OVC004 M01/M01 Q1001
Conditions at: EGSS (STANSTED AIRPORT, GB) observed 1020 UTC 23 January 2019
Temperature: -1.0°C (30°F)
Dewpoint: -1.0°C (30°F) [RH = 100%]
Pressure (altimeter): 29.56 inches Hg (1001.0 mb)
Winds: from the N (350 degrees) at 9 MPH (8 knots; 4.1 m/s)
Visibility: 2.11 miles (3.40 km)
Ceiling: 400 feet AGL
Clouds: overcast cloud deck at 400 feet AGL
Weather: BR  (mist)

METAR text: EGSS 230950Z 34009KT 4100 HZ OVC005 00/M01 Q1001
Conditions at: EGSS (STANSTED AIRPORT, GB) observed 0950 UTC 23 January 2019
Temperature: 0.0°C (32°F)
Dewpoint: -1.0°C (30°F) [RH = 93%]
Pressure (altimeter): 29.56 inches Hg (1001.0 mb)
Winds: from the NNW (340 degrees) at 10 MPH (9 knots; 4.6 m/s)
Visibility: 2.55 miles (4.10 km)
Ceiling: 500 feet AGL
Clouds: overcast cloud deck at 500 feet AGL
Weather: HZ  (haze)

METAR text: EGSS 230920Z AUTO 33008KT 4400 HZ OVC005 M00/M01 Q1000
Conditions at: EGSS (STANSTED AIRPORT, GB) observed 0920 UTC 23 January 2019
Temperature: 0.0°C (32°F)
Dewpoint: -1.0°C (30°F) [RH = 93%]
Pressure (altimeter): 29.53 inches Hg (1000.0 mb)
Winds: from the NNW (330 degrees) at 9 MPH (8 knots; 4.1 m/s)
Visibility: 2.73 miles (4.39 km)
Ceiling: 500 feet AGL
Clouds: overcast cloud deck at 500 feet AGL
Weather: HZ  (haze)

METAR text: EGSS 230850Z AUTO 34008KT 310V020 4800 BR BKN006 OVC027 M00/M01 Q1000
Conditions at: EGSS (STANSTED AIRPORT, GB) observed 0850 UTC 23 January 2019
Temperature: 0.0°C (32°F)
Dewpoint: -1.0°C (30°F) [RH = 93%]
Pressure (altimeter): 29.53 inches Hg (1000.0 mb)
Winds: from the NNW (340 degrees) at 9 MPH (8 knots; 4.1 m/s)
Visibility: 2.98 miles (4.80 km)
Ceiling: 600 feet AGL
Clouds: broken clouds at 600 feet AGL
overcast cloud deck at 2700 feet AGL
Weather: BR  (mist)

METAR text: EGSS 230820Z AUTO 33008KT 4200 BR BKN005 OVC026 M00/M01 Q0999
Conditions at: EGSS (STANSTED AIRPORT, GB) observed 0820 UTC 23 January 2019
Temperature: 0.0°C (32°F)
Dewpoint: -1.0°C (30°F) [RH = 93%]
Pressure (altimeter): 29.50 inches Hg (999.0 mb)
Winds: from the NNW (330 degrees) at 9 MPH (8 knots; 4.1 m/s)
Visibility: 2.61 miles (4.20 km)
Ceiling: 500 feet AGL
Clouds: broken clouds at 500 feet AGL
overcast cloud deck at 2600 feet AGL
Weather: BR  (mist)

METAR text: EGSS 230750Z AUTO 33009KT 3700 BR OVC004 M00/M01 Q0999
Conditions at: EGSS (STANSTED AIRPORT, GB) observed 0750 UTC 23 January 2019
Temperature: 0.0°C (32°F)
Dewpoint: -1.0°C (30°F) [RH = 93%]
Pressure (altimeter): 29.50 inches Hg (999.0 mb)
Winds: from the NNW (330 degrees) at 10 MPH (9 knots; 4.6 m/s)
Visibility: 2.30 miles (3.70 km)
Ceiling: 400 feet AGL
Clouds: overcast cloud deck at 400 feet AGL
Weather: BR  (mist)

METAR text: EGSS 230720Z AUTO 32006KT 3400 BR BKN004 BKN012 BKN016 M01/M01 Q0999
Conditions at: EGSS (STANSTED AIRPORT, GB) observed 0720 UTC 23 January 2019
Temperature: -1.0°C (30°F)
Dewpoint: -1.0°C (30°F) [RH = 100%]
Pressure (altimeter): 29.50 inches Hg (999.0 mb)
Winds: from the NW (320 degrees) at 7 MPH (6 knots; 3.1 m/s)
Visibility: 2.11 miles (3.40 km)
Ceiling: 400 feet AGL
Clouds: broken clouds at 400 feet AGL
broken clouds at 1200 feet AGL
broken clouds at 1600 feet AGL
Weather: BR  (mist)

METAR text: EGSS 230650Z AUTO 33008KT 3700 BR BKN004 OVC016 M00/M01 Q0998
Conditions at: EGSS (STANSTED AIRPORT, GB) observed 0650 UTC 23 January 2019
Temperature: 0.0°C (32°F)
Dewpoint: -1.0°C (30°F) [RH = 93%]
Pressure (altimeter): 29.47 inches Hg (998.0 mb)
Winds: from the NNW (330 degrees) at 9 MPH (8 knots; 4.1 m/s)
Visibility: 2.30 miles (3.70 km)
Ceiling: 400 feet AGL
Clouds: broken clouds at 400 feet AGL
overcast cloud deck at 1600 feet AGL
Weather: BR  (mist)

METAR text: EGSS 230620Z AUTO 34006KT 3900 BR OVC004 M00/M01 Q0998
Conditions at: EGSS (STANSTED AIRPORT, GB) observed 0620 UTC 23 January 2019
Temperature: 0.0°C (32°F)
Dewpoint: -1.0°C (30°F) [RH = 93%]
Pressure (altimeter): 29.47 inches Hg (998.0 mb)
Winds: from the NNW (340 degrees) at 7 MPH (6 knots; 3.1 m/s)
Visibility: 2.42 miles (3.89 km)
Ceiling: 400 feet AGL
Clouds: overcast cloud deck at 400 feet AGL
Weather: BR  (mist)

METAR text: EGSS 230550Z AUTO 34005KT 4100 BR BKN004 M01/M01 Q0998
Conditions at: EGSS (STANSTED AIRPORT, GB) observed 0550 UTC 23 January 2019
Temperature: -1.0°C (30°F)
Dewpoint: -1.0°C (30°F) [RH = 100%]
Pressure (altimeter): 29.47 inches Hg (998.0 mb)
Winds: from the NNW (340 degrees) at 6 MPH (5 knots; 2.6 m/s)
Visibility: 2.55 miles (4.10 km)
Ceiling: 400 feet AGL
Clouds: broken clouds at 400 feet AGL
Weather: BR  (mist)

METAR text: EGSS 230520Z AUTO 33004KT 4300 BR SCT006 M01/M02 Q0997
Conditions at: EGSS (STANSTED AIRPORT, GB) observed 0520 UTC 23 January 2019
Temperature: -1.0°C (30°F)
Dewpoint: -2.0°C (28°F) [RH = 93%]
Pressure (altimeter): 29.44 inches Hg (997.0 mb)
Winds: from the NNW (330 degrees) at 5 MPH (4 knots; 2.1 m/s)
Visibility: 2.67 miles (4.30 km)
Ceiling: at least 12,000 feet AGL
Clouds: scattered clouds at 600 feet AGL
Weather: BR  (mist)

METAR text: EGSS 230450Z AUTO 33004KT 4200 BR SCT004 BKN012 M01/M02 Q0997
Conditions at: EGSS (STANSTED AIRPORT, GB) observed 0450 UTC 23 January 2019
Temperature: -1.0°C (30°F)
Dewpoint: -2.0°C (28°F) [RH = 93%]
Pressure (altimeter): 29.44 inches Hg (997.0 mb)
Winds: from the NNW (330 degrees) at 5 MPH (4 knots; 2.1 m/s)
Visibility: 2.61 miles (4.20 km)
Ceiling: 1200 feet AGL
Clouds: scattered clouds at 400 feet AGL
broken clouds at 1200 feet AGL
Weather: BR  (mist)

METAR text: EGSS 230420Z AUTO 33004KT 5000 HZ BKN005 M01/M02 Q0997
Conditions at: EGSS (STANSTED AIRPORT, GB) observed 0420 UTC 23 January 2019
Temperature: -1.0°C (30°F)
Dewpoint: -2.0°C (28°F) [RH = 93%]
Pressure (altimeter): 29.44 inches Hg (997.0 mb)
Winds: from the NNW (330 degrees) at 5 MPH (4 knots; 2.1 m/s)
Visibility: 3 miles ( 5 km)
Ceiling: 500 feet AGL
Clouds: broken clouds at 500 feet AGL
Weather: HZ  (haze)

METAR text: EGSS 230350Z AUTO 34004KT 8000 BKN014 M01/M01 Q0996
Conditions at: EGSS (STANSTED AIRPORT, GB) observed 0350 UTC 23 January 2019
Temperature: -1.0°C (30°F)
Dewpoint: -1.0°C (30°F) [RH = 100%]
Pressure (altimeter): 29.41 inches Hg (996.0 mb)
Winds: from the NNW (340 degrees) at 5 MPH (4 knots; 2.1 m/s)
Visibility: 5 miles ( 8 km)
Ceiling: 1400 feet AGL
Clouds: broken clouds at 1400 feet AGL
Weather: no significant weather observed at this time

METAR text: EGSS 230320Z AUTO 31007KT 9999 BKN014 M00/M01 Q0996
Conditions at: EGSS (STANSTED AIRPORT, GB) observed 0320 UTC 23 January 2019
Temperature: 0.0°C (32°F)
Dewpoint: -1.0°C (30°F) [RH = 93%]
Pressure (altimeter): 29.41 inches Hg (996.0 mb)
Winds: from the NW (310 degrees) at 8 MPH (7 knots; 3.6 m/s)
Visibility: 6 or more miles (10+ km)
Ceiling: 1400 feet AGL
Clouds: broken clouds at 1400 feet AGL
Weather: no significant weather observed at this time

METAR text: EGSS 230250Z AUTO 32006KT 8000 FEW016 M01/M01 Q0996
Conditions at: EGSS (STANSTED AIRPORT, GB) observed 0250 UTC 23 January 2019
Temperature: -1.0°C (30°F)
Dewpoint: -1.0°C (30°F) [RH = 100%]
Pressure (altimeter): 29.41 inches Hg (996.0 mb)
Winds: from the NW (320 degrees) at 7 MPH (6 knots; 3.1 m/s)
Visibility: 5 miles ( 8 km)
Ceiling: at least 12,000 feet AGL
Clouds: few clouds at 1600 feet AGL
Weather: no significant weather observed at this time

METAR text: EGSS 230220Z AUTO 31006KT 9000 FEW006 BKN016 M00/M01 Q0997
Conditions at: EGSS (STANSTED AIRPORT, GB) observed 0220 UTC 23 January 2019
Temperature: 0.0°C (32°F)
Dewpoint: -1.0°C (30°F) [RH = 93%]
Pressure (altimeter): 29.44 inches Hg (997.0 mb)
Winds: from the NW (310 degrees) at 7 MPH (6 knots; 3.1 m/s)
Visibility: 6 miles ( 9 km)
Ceiling: 1600 feet AGL
Clouds: few clouds at 600 feet AGL
broken clouds at 1600 feet AGL
Weather: no significant weather observed at this time

METAR text: EGSS 230150Z AUTO 32006KT 280V340 9999 OVC007 M00/M01 Q0997
Conditions at: EGSS (STANSTED AIRPORT, GB) observed 0150 UTC 23 January 2019
Temperature: 0.0°C (32°F)
Dewpoint: -1.0°C (30°F) [RH = 93%]
Pressure (altimeter): 29.44 inches Hg (997.0 mb)
Winds: from the NW (320 degrees) at 7 MPH (6 knots; 3.1 m/s)
Visibility: 6 or more miles (10+ km)
Ceiling: 700 feet AGL
Clouds: overcast cloud deck at 700 feet AGL
Weather: no significant weather observed at this time

METAR text: EGSS 230120Z AUTO 31005KT 7000 BKN004 OVC008 00/M00 Q0996
Conditions at: EGSS (STANSTED AIRPORT, GB) observed 0120 UTC 23 January 2019
Temperature: 0.0°C (32°F)
Dewpoint: 0.0°C (32°F) [RH = 100%]
Pressure (altimeter): 29.41 inches Hg (996.0 mb)
Winds: from the NW (310 degrees) at 6 MPH (5 knots; 2.6 m/s)
Visibility: 4 miles ( 7 km)
Ceiling: 400 feet AGL
Clouds: broken clouds at 400 feet AGL
overcast cloud deck at 800 feet AGL
Weather: no significant weather observed at this time

METAR text: EGSS 230050Z AUTO 33008KT 5000 BR OVC003 00/M00 Q0996
Conditions at: EGSS (STANSTED AIRPORT, GB) observed 0050 UTC 23 January 2019
Temperature: 0.0°C (32°F)
Dewpoint: 0.0°C (32°F) [RH = 100%]
Pressure (altimeter): 29.41 inches Hg (996.0 mb)
Winds: from the NNW (330 degrees) at 9 MPH (8 knots; 4.1 m/s)
Visibility: 3 miles ( 5 km)
Ceiling: 300 feet AGL
Clouds: overcast cloud deck at 300 feet AGL
Weather: BR  (mist)

METAR text: EGSS 230020Z AUTO 32006KT 5000 BR OVC004 00/M00 Q0996
Conditions at: EGSS (STANSTED AIRPORT, GB) observed 0020 UTC 23 January 2019
Temperature: 0.0°C (32°F)
Dewpoint: 0.0°C (32°F) [RH = 100%]
Pressure (altimeter): 29.41 inches Hg (996.0 mb)
Winds: from the NW (320 degrees) at 7 MPH (6 knots; 3.1 m/s)
Visibility: 3 miles ( 5 km)
Ceiling: 400 feet AGL
Clouds: overcast cloud deck at 400 feet AGL
Weather: BR  (mist)

METAR text: EGSS 222350Z AUTO 33007KT 6000 BKN004 OVC009 00/00 Q0996
Conditions at: EGSS (STANSTED AIRPORT, GB) observed 2350 UTC 22 January 2019
Temperature: 0.0°C (32°F)
Dewpoint: 0.0°C (32°F) [RH = 100%]
Pressure (altimeter): 29.41 inches Hg (996.0 mb)
Winds: from the NNW (330 degrees) at 8 MPH (7 knots; 3.6 m/s)
Visibility: 4 miles ( 6 km)
Ceiling: 400 feet AGL
Clouds: broken clouds at 400 feet AGL
overcast cloud deck at 900 feet AGL
Weather: no significant weather observed at this time

METAR text: EGSS 222320Z AUTO 32005KT 6000 -RA BKN004 OVC009 00/00 Q0996 RERA
Conditions at: EGSS (STANSTED AIRPORT, GB) observed 2320 UTC 22 January 2019
Temperature: 0.0°C (32°F)
Dewpoint: 0.0°C (32°F) [RH = 100%]
Pressure (altimeter): 29.41 inches Hg (996.0 mb)
Winds: from the NW (320 degrees) at 6 MPH (5 knots; 2.6 m/s)
Visibility: 4 miles ( 6 km)
Ceiling: 400 feet AGL
Clouds: broken clouds at 400 feet AGL
overcast cloud deck at 900 feet AGL
Weather: -RA  (light rain)

METAR text: EGSS 222250Z AUTO VRB02KT 3300 -RASN BKN002 OVC010 00/M00 Q0996
Conditions at: EGSS (STANSTED AIRPORT, GB) observed 2250 UTC 22 January 2019
Temperature: 0.0°C (32°F)
Dewpoint: 0.0°C (32°F) [RH = 100%]
Pressure (altimeter): 29.41 inches Hg (996.0 mb)
Winds: variable direction winds at 2 MPH (2 knots; 1.0 m/s)
Visibility: 2.05 miles (3.30 km)
Ceiling: 200 feet AGL
Clouds: broken clouds at 200 feet AGL
overcast cloud deck at 1000 feet AGL
Weather: -RA -SN  (light rain, light snow)

METAR text: EGSS 222220Z 30002KT 2100 -SG BKN001 OVC010 00/00 Q0996 RESG
Conditions at: EGSS (STANSTED AIRPORT, GB) observed 2220 UTC 22 January 2019
Temperature: 0.0°C (32°F)
Dewpoint: 0.0°C (32°F) [RH = 100%]
Pressure (altimeter): 29.41 inches Hg (996.0 mb)
Winds: from the WNW (300 degrees) at 2 MPH (2 knots; 1.0 m/s)
Visibility: 1.30 miles (2.09 km)
Ceiling: 100 feet AGL
Clouds: broken clouds at 100 feet AGL
overcast cloud deck at 1000 feet AGL
Weather: -SG  (light snow grains)

METAR text: EGSS 222150Z VRB02KT 1600 BR SCT002 SCT035 00/00 Q0997
Conditions at: EGSS (STANSTED AIRPORT, GB) observed 2150 UTC 22 January 2019
Temperature: 0.0°C (32°F)
Dewpoint: 0.0°C (32°F) [RH = 100%]
Pressure (altimeter): 29.44 inches Hg (997.0 mb)
Winds: variable direction winds at 2 MPH (2 knots; 1.0 m/s)
Visibility: 0.99 miles (1.59 km)
Ceiling: at least 12,000 feet AGL
Clouds: scattered clouds at 200 feet AGL
scattered clouds at 3500 feet AGL
Weather: BR  (mist)

METAR text: EGSS 222120Z VRB01KT 2300 BR BKN002 BKN007 OVC041 00/00 Q0997
Conditions at: EGSS (STANSTED AIRPORT, GB) observed 2120 UTC 22 January 2019
Temperature: 0.0°C (32°F)
Dewpoint: 0.0°C (32°F) [RH = 100%]
Pressure (altimeter): 29.44 inches Hg (997.0 mb)
Winds: variable direction winds at 1 MPH (1 knots; 0.5 m/s)
Visibility: 1.43 miles (2.30 km)
Ceiling: 200 feet AGL
Clouds: broken clouds at 200 feet AGL
broken clouds at 700 feet AGL
overcast cloud deck at 4100 feet AGL
Weather: BR  (mist)

METAR text: EGSS 222050Z AUTO 29002KT 2000 BR SCT002 SCT011 BKN046 00/M00 Q0997 RERA REDZ
Conditions at: EGSS (STANSTED AIRPORT, GB) observed 2050 UTC 22 January 2019
Temperature: 0.0°C (32°F)
Dewpoint: 0.0°C (32°F) [RH = 100%]
Pressure (altimeter): 29.44 inches Hg (997.0 mb)
Winds: from the WNW (290 degrees) at 2 MPH (2 knots; 1.0 m/s)
Visibility: 1.24 miles (2.00 km)
Ceiling: 4600 feet AGL
Clouds: scattered clouds at 200 feet AGL
scattered clouds at 1100 feet AGL
broken clouds at 4600 feet AGL
Weather: BR  (mist)

METAR text: EGSS 222020Z AUTO 29002KT 2200 -RASN BKN005 BKN035 00/M00 Q0997
Conditions at: EGSS (STANSTED AIRPORT, GB) observed 2020 UTC 22 January 2019
Temperature: 0.0°C (32°F)
Dewpoint: 0.0°C (32°F) [RH = 100%]
Pressure (altimeter): 29.44 inches Hg (997.0 mb)
Winds: from the WNW (290 degrees) at 2 MPH (2 knots; 1.0 m/s)
Visibility: 1.37 miles (2.20 km)
Ceiling: 500 feet AGL
Clouds: broken clouds at 500 feet AGL
broken clouds at 3500 feet AGL
Weather: -RA -SN  (light rain, light snow)

METAR text: EGSS 221950Z VRB01KT 3000 -SN FEW006 BKN022 BKN032 00/00 Q0997 RESN
Conditions at: EGSS (STANSTED AIRPORT, GB) observed 1950 UTC 22 January 2019
Temperature: 0.0°C (32°F)
Dewpoint: 0.0°C (32°F) [RH = 100%]
Pressure (altimeter): 29.44 inches Hg (997.0 mb)
Winds: variable direction winds at 1 MPH (1 knots; 0.5 m/s)
Visibility: 1.86 miles (2.99 km)
Ceiling: 2200 feet AGL
Clouds: few clouds at 600 feet AGL
broken clouds at 2200 feet AGL
broken clouds at 3200 feet AGL
Weather: -SN  (light snow)

METAR text: EGSS 221920Z 24002KT 2800 SN FEW006 BKN016 BKN024 00/00 Q0998 RESN
Conditions at: EGSS (STANSTED AIRPORT, GB) observed 1920 UTC 22 January 2019
Temperature: 0.0°C (32°F)
Dewpoint: 0.0°C (32°F) [RH = 100%]
Pressure (altimeter): 29.47 inches Hg (998.0 mb)
Winds: from the WSW (240 degrees) at 2 MPH (2 knots; 1.0 m/s)
Visibility: 1.74 miles (2.80 km)
Ceiling: 1600 feet AGL
Clouds: few clouds at 600 feet AGL
broken clouds at 1600 feet AGL
broken clouds at 2400 feet AGL
Weather: SN  (moderate snow)

METAR text: EGSS 221850Z 26003KT 3000 SN BKN004TCU BKN010 OVC036 01/00 Q0998
Conditions at: EGSS (STANSTED AIRPORT, GB) observed 1850 UTC 22 January 2019
Temperature: 1.0°C (34°F)
Dewpoint: 0.0°C (32°F) [RH = 93%]
Pressure (altimeter): 29.47 inches Hg (998.0 mb)
Winds: from the W (260 degrees) at 3 MPH (3 knots; 1.5 m/s)
Visibility: 1.86 miles (2.99 km)
Ceiling: 400 feet AGL
Clouds: broken clouds at 400 feet AGL
broken clouds at 1000 feet AGL
overcast cloud deck at 3600 feet AGL
Weather: SN  (moderate snow)

METAR text: EGSS 221820Z AUTO 24005KT 8000 -RA FEW008 SCT033 BKN047 01/00 Q0998
Conditions at: EGSS (STANSTED AIRPORT, GB) observed 1820 UTC 22 January 2019
Temperature: 1.0°C (34°F)
Dewpoint: 0.0°C (32°F) [RH = 93%]
Pressure (altimeter): 29.47 inches Hg (998.0 mb)
Winds: from the WSW (240 degrees) at 6 MPH (5 knots; 2.6 m/s)
Visibility: 5 miles ( 8 km)
Ceiling: 4700 feet AGL
Clouds: few clouds at 800 feet AGL
scattered clouds at 3300 feet AGL
broken clouds at 4700 feet AGL
Weather: -RA  (light rain)

METAR text: EGSS 221750Z AUTO 25007KT 9999 -RA FEW008 SCT031 01/00 Q0998
Conditions at: EGSS (STANSTED AIRPORT, GB) observed 1750 UTC 22 January 2019
Temperature: 1.0°C (34°F)
Dewpoint: 0.0°C (32°F) [RH = 93%]
Pressure (altimeter): 29.47 inches Hg (998.0 mb)
Winds: from the WSW (250 degrees) at 8 MPH (7 knots; 3.6 m/s)
Visibility: 6 or more miles (10+ km)
Ceiling: at least 12,000 feet AGL
Clouds: few clouds at 800 feet AGL
scattered clouds at 3100 feet AGL
Weather: -RA  (light rain)

METAR text: EGSS 221720Z AUTO 23010KT 9999 NCD 02/M00 Q0998
Conditions at: EGSS (STANSTED AIRPORT, GB) observed 1720 UTC 22 January 2019
Temperature: 2.0°C (36°F)
Dewpoint: 0.0°C (32°F) [RH = 87%]
Pressure (altimeter): 29.47 inches Hg (998.0 mb)
Winds: from the SW (230 degrees) at 12 MPH (10 knots; 5.1 m/s)
Visibility: 6 or more miles (10+ km)
Ceiling: at least 12,000 feet AGL
Clouds: sky clear below 12,000 feet AGL
Weather: no significant weather observed at this time

METAR text: EGSS 221650Z AUTO 23005KT 9999 SCT028 02/M00 Q0998
Conditions at: EGSS (STANSTED AIRPORT, GB) observed 1650 UTC 22 January 2019
Temperature: 2.0°C (36°F)
Dewpoint: 0.0°C (32°F) [RH = 87%]
Pressure (altimeter): 29.47 inches Hg (998.0 mb)
Winds: from the SW (230 degrees) at 6 MPH (5 knots; 2.6 m/s)
Visibility: 6 or more miles (10+ km)
Ceiling: at least 12,000 feet AGL
Clouds: scattered clouds at 2800 feet AGL
Weather: no significant weather observed at this time

METAR text: EGSS 221620Z AUTO 21004KT 9999 FEW028 02/M01 Q0998
Conditions at: EGSS (STANSTED AIRPORT, GB) observed 1620 UTC 22 January 2019
Temperature: 2.0°C (36°F)
Dewpoint: -1.0°C (30°F) [RH = 80%]
Pressure (altimeter): 29.47 inches Hg (998.0 mb)
Winds: from the SSW (210 degrees) at 5 MPH (4 knots; 2.1 m/s)
Visibility: 6 or more miles (10+ km)
Ceiling: at least 12,000 feet AGL
Clouds: few clouds at 2800 feet AGL
Weather: no significant weather observed at this time

METAR text: EGSS 221550Z AUTO 24003KT 9999 NCD 03/M01 Q0998
Conditions at: EGSS (STANSTED AIRPORT, GB) observed 1550 UTC 22 January 2019
Temperature: 3.0°C (37°F)
Dewpoint: -1.0°C (30°F) [RH = 75%]
Pressure (altimeter): 29.47 inches Hg (998.0 mb)
Winds: from the WSW (240 degrees) at 3 MPH (3 knots; 1.5 m/s)
Visibility: 6 or more miles (10+ km)
Ceiling: at least 12,000 feet AGL
Clouds: sky clear below 12,000 feet AGL
Weather: no significant weather observed at this time

METAR text: EGSS 221520Z AUTO 23004KT 9999 NCD 03/M01 Q0999
Conditions at: EGSS (STANSTED AIRPORT, GB) observed 1520 UTC 22 January 2019
Temperature: 3.0°C (37°F)
Dewpoint: -1.0°C (30°F) [RH = 75%]
Pressure (altimeter): 29.50 inches Hg (999.0 mb)
Winds: from the SW (230 degrees) at 5 MPH (4 knots; 2.1 m/s)
Visibility: 6 or more miles (10+ km)
Ceiling: at least 12,000 feet AGL
Clouds: sky clear below 12,000 feet AGL
Weather: no significant weather observed at this time

METAR text: EGSS 221450Z AUTO 25006KT 9999 NCD 04/M01 Q0999
Conditions at: EGSS (STANSTED AIRPORT, GB) observed 1450 UTC 22 January 2019
Temperature: 4.0°C (39°F)
Dewpoint: -1.0°C (30°F) [RH = 70%]
Pressure (altimeter): 29.50 inches Hg (999.0 mb)
Winds: from the WSW (250 degrees) at 7 MPH (6 knots; 3.1 m/s)
Visibility: 6 or more miles (10+ km)
Ceiling: at least 12,000 feet AGL
Clouds: sky clear below 12,000 feet AGL
Weather: no significant weather observed at this time

METAR text: EGSS 221420Z AUTO 25006KT 220V280 9999 NCD 05/M01 Q0999
Conditions at: EGSS (STANSTED AIRPORT, GB) observed 1420 UTC 22 January 2019
Temperature: 5.0°C (41°F)
Dewpoint: -1.0°C (30°F) [RH = 65%]
Pressure (altimeter): 29.50 inches Hg (999.0 mb)
Winds: from the WSW (250 degrees) at 7 MPH (6 knots; 3.1 m/s)
Visibility: 6 or more miles (10+ km)
Ceiling: at least 12,000 feet AGL
Clouds: sky clear below 12,000 feet AGL
Weather: no significant weather observed at this time

METAR text: EGSS 221350Z AUTO 26006KT 9999 NCD 05/M01 Q1000
Conditions at: EGSS (STANSTED AIRPORT, GB) observed 1350 UTC 22 January 2019
Temperature: 5.0°C (41°F)
Dewpoint: -1.0°C (30°F) [RH = 65%]
Pressure (altimeter): 29.53 inches Hg (1000.0 mb)
Winds: from the W (260 degrees) at 7 MPH (6 knots; 3.1 m/s)
Visibility: 6 or more miles (10+ km)
Ceiling: at least 12,000 feet AGL
Clouds: sky clear below 12,000 feet AGL
Weather: no significant weather observed at this time

METAR text: EGSS 221320Z AUTO 27006KT 250V310 9999 NCD 05/M00 Q1000
Conditions at: EGSS (STANSTED AIRPORT, GB) observed 1320 UTC 22 January 2019
Temperature: 5.0°C (41°F)
Dewpoint: 0.0°C (32°F) [RH = 70%]
Pressure (altimeter): 29.53 inches Hg (1000.0 mb)
Winds: from the W (270 degrees) at 7 MPH (6 knots; 3.1 m/s)
Visibility: 6 or more miles (10+ km)
Ceiling: at least 12,000 feet AGL
Clouds: sky clear below 12,000 feet AGL
Weather: no significant weather observed at this time

METAR text: EGSS 221250Z AUTO 28007KT 240V310 9999 NCD 05/00 Q1001
Conditions at: EGSS (STANSTED AIRPORT, GB) observed 1250 UTC 22 January 2019
Temperature: 5.0°C (41°F)
Dewpoint: 0.0°C (32°F) [RH = 70%]
Pressure (altimeter): 29.56 inches Hg (1001.0 mb)
Winds: from the W (280 degrees) at 8 MPH (7 knots; 3.6 m/s)
Visibility: 6 or more miles (10+ km)
Ceiling: at least 12,000 feet AGL
Clouds: sky clear below 12,000 feet AGL
Weather: no significant weather observed at this time

METAR text: EGSS 221220Z AUTO 28007KT 260V320 9999 FEW018 05/01 Q1001
Conditions at: EGSS (STANSTED AIRPORT, GB) observed 1220 UTC 22 January 2019
Temperature: 5.0°C (41°F)
Dewpoint: 1.0°C (34°F) [RH = 75%]
Pressure (altimeter): 29.56 inches Hg (1001.0 mb)
Winds: from the W (280 degrees) at 8 MPH (7 knots; 3.6 m/s)
Visibility: 6 or more miles (10+ km)
Ceiling: at least 12,000 feet AGL
Clouds: few clouds at 1800 feet AGL
Weather: no significant weather observed at this time

METAR text: EGSS 221150Z AUTO 26007KT 9999 NCD 04/01 Q1002
Conditions at: EGSS (STANSTED AIRPORT, GB) observed 1150 UTC 22 January 2019
Temperature: 4.0°C (39°F)
Dewpoint: 1.0°C (34°F) [RH = 81%]
Pressure (altimeter): 29.59 inches Hg (1002.0 mb)
Winds: from the W (260 degrees) at 8 MPH (7 knots; 3.6 m/s)
Visibility: 6 or more miles (10+ km)
Ceiling: at least 12,000 feet AGL
Clouds: sky clear below 12,000 feet AGL
Weather: no significant weather observed at this time

METAR text: EGSS 221120Z AUTO 26007KT 9999 NCD 04/01 Q1002
Conditions at: EGSS (STANSTED AIRPORT, GB) observed 1120 UTC 22 January 2019
Temperature: 4.0°C (39°F)
Dewpoint: 1.0°C (34°F) [RH = 81%]
Pressure (altimeter): 29.59 inches Hg (1002.0 mb)
Winds: from the W (260 degrees) at 8 MPH (7 knots; 3.6 m/s)
Visibility: 6 or more miles (10+ km)
Ceiling: at least 12,000 feet AGL
Clouds: sky clear below 12,000 feet AGL
Weather: no significant weather observed at this time

METAR text: EGSS 221050Z AUTO 24008KT 9999 NCD 03/01 Q1002
Conditions at: EGSS (STANSTED AIRPORT, GB) observed 1050 UTC 22 January 2019
Temperature: 3.0°C (37°F)
Dewpoint: 1.0°C (34°F) [RH = 87%]
Pressure (altimeter): 29.59 inches Hg (1002.0 mb)
Winds: from the WSW (240 degrees) at 9 MPH (8 knots; 4.1 m/s)
Visibility: 6 or more miles (10+ km)
Ceiling: at least 12,000 feet AGL
Clouds: sky clear below 12,000 feet AGL
Weather: no significant weather observed at this time

METAR text: EGSS 221020Z AUTO 24007KT 9999 NCD 03/01 Q1002
Conditions at: EGSS (STANSTED AIRPORT, GB) observed 1020 UTC 22 January 2019
Temperature: 3.0°C (37°F)
Dewpoint: 1.0°C (34°F) [RH = 87%]
Pressure (altimeter): 29.59 inches Hg (1002.0 mb)
Winds: from the WSW (240 degrees) at 8 MPH (7 knots; 3.6 m/s)
Visibility: 6 or more miles (10+ km)
Ceiling: at least 12,000 feet AGL
Clouds: sky clear below 12,000 feet AGL
Weather: no significant weather observed at this time

METAR text: EGSS 220950Z AUTO 24007KT 9999 NCD 02/00 Q1002
Conditions at: EGSS (STANSTED AIRPORT, GB) observed 0950 UTC 22 January 2019
Temperature: 2.0°C (36°F)
Dewpoint: 0.0°C (32°F) [RH = 87%]
Pressure (altimeter): 29.59 inches Hg (1002.0 mb)
Winds: from the WSW (240 degrees) at 8 MPH (7 knots; 3.6 m/s)
Visibility: 6 or more miles (10+ km)
Ceiling: at least 12,000 feet AGL
Clouds: sky clear below 12,000 feet AGL
Weather: no significant weather observed at this time

METAR text: EGSS 220920Z AUTO 25007KT 9999 NCD 01/00 Q1002
Conditions at: EGSS (STANSTED AIRPORT, GB) observed 0920 UTC 22 January 2019
Temperature: 1.0°C (34°F)
Dewpoint: 0.0°C (32°F) [RH = 93%]
Pressure (altimeter): 29.59 inches Hg (1002.0 mb)
Winds: from the WSW (250 degrees) at 8 MPH (7 knots; 3.6 m/s)
Visibility: 6 or more miles (10+ km)
Ceiling: at least 12,000 feet AGL
Clouds: sky clear below 12,000 feet AGL
Weather: no significant weather observed at this time

METAR text: EGSS 220850Z AUTO 25007KT 9999 NCD 00/M00 Q1002
Conditions at: EGSS (STANSTED AIRPORT, GB) observed 0850 UTC 22 January 2019
Temperature: 0.0°C (32°F)
Dewpoint: 0.0°C (32°F) [RH = 100%]
Pressure (altimeter): 29.59 inches Hg (1002.0 mb)
Winds: from the WSW (250 degrees) at 8 MPH (7 knots; 3.6 m/s)
Visibility: 6 or more miles (10+ km)
Ceiling: at least 12,000 feet AGL
Clouds: sky clear below 12,000 feet AGL
Weather: no significant weather observed at this time

METAR text: EGSS 220820Z AUTO 26005KT 9999 NCD 00/M01 Q1002
Conditions at: EGSS (STANSTED AIRPORT, GB) observed 0820 UTC 22 January 2019
Temperature: 0.0°C (32°F)
Dewpoint: -1.0°C (30°F) [RH = 93%]
Pressure (altimeter): 29.59 inches Hg (1002.0 mb)
Winds: from the W (260 degrees) at 6 MPH (5 knots; 2.6 m/s)
Visibility: 6 or more miles (10+ km)
Ceiling: at least 12,000 feet AGL
Clouds: sky clear below 12,000 feet AGL
Weather: no significant weather observed at this time

METAR text: EGSS 220750Z AUTO 26005KT 9999 NCD 01/M00 Q1003
Conditions at: EGSS (STANSTED AIRPORT, GB) observed 0750 UTC 22 January 2019
Temperature: 1.0°C (34°F)
Dewpoint: 0.0°C (32°F) [RH = 93%]
Pressure (altimeter): 29.62 inches Hg (1003.0 mb)
Winds: from the W (260 degrees) at 6 MPH (5 knots; 2.6 m/s)
Visibility: 6 or more miles (10+ km)
Ceiling: at least 12,000 feet AGL
Clouds: sky clear below 12,000 feet AGL
Weather: no significant weather observed at this time

METAR text: EGSS 220720Z AUTO 26005KT 9999 NCD 01/M00 Q1003
Conditions at: EGSS (STANSTED AIRPORT, GB) observed 0720 UTC 22 January 2019
Temperature: 1.0°C (34°F)
Dewpoint: 0.0°C (32°F) [RH = 93%]
Pressure (altimeter): 29.62 inches Hg (1003.0 mb)
Winds: from the W (260 degrees) at 6 MPH (5 knots; 2.6 m/s)
Visibility: 6 or more miles (10+ km)
Ceiling: at least 12,000 feet AGL
Clouds: sky clear below 12,000 feet AGL
Weather: no significant weather observed at this time

METAR text: EGSS 220650Z AUTO 26005KT 9999 NCD 01/00 Q1003
Conditions at: EGSS (STANSTED AIRPORT, GB) observed 0650 UTC 22 January 2019
Temperature: 1.0°C (34°F)
Dewpoint: 0.0°C (32°F) [RH = 93%]
Pressure (altimeter): 29.62 inches Hg (1003.0 mb)
Winds: from the W (260 degrees) at 6 MPH (5 knots; 2.6 m/s)
Visibility: 6 or more miles (10+ km)
Ceiling: at least 12,000 feet AGL
Clouds: sky clear below 12,000 feet AGL
Weather: no significant weather observed at this time

METAR text: EGSS 220620Z AUTO 27006KT 9999 NCD 02/01 Q1003
Conditions at: EGSS (STANSTED AIRPORT, GB) observed 0620 UTC 22 January 2019
Temperature: 2.0°C (36°F)
Dewpoint: 1.0°C (34°F) [RH = 93%]
Pressure (altimeter): 29.62 inches Hg (1003.0 mb)
Winds: from the W (270 degrees) at 7 MPH (6 knots; 3.1 m/s)
Visibility: 6 or more miles (10+ km)
Ceiling: at least 12,000 feet AGL
Clouds: sky clear below 12,000 feet AGL
Weather: no significant weather observed at this time

METAR text: EGSS 220550Z AUTO 28006KT 9999 NCD 02/01 Q1003
Conditions at: EGSS (STANSTED AIRPORT, GB) observed 0550 UTC 22 January 2019
Temperature: 2.0°C (36°F)
Dewpoint: 1.0°C (34°F) [RH = 93%]
Pressure (altimeter): 29.62 inches Hg (1003.0 mb)
Winds: from the W (280 degrees) at 7 MPH (6 knots; 3.1 m/s)
Visibility: 6 or more miles (10+ km)
Ceiling: at least 12,000 feet AGL
Clouds: sky clear below 12,000 feet AGL
Weather: no significant weather observed at this time

METAR text: EGSS 220520Z AUTO 27006KT 9999 NCD 03/01 Q1002
Conditions at: EGSS (STANSTED AIRPORT, GB) observed 0520 UTC 22 January 2019
Temperature: 3.0°C (37°F)
Dewpoint: 1.0°C (34°F) [RH = 87%]
Pressure (altimeter): 29.59 inches Hg (1002.0 mb)
Winds: from the W (270 degrees) at 7 MPH (6 knots; 3.1 m/s)
Visibility: 6 or more miles (10+ km)
Ceiling: at least 12,000 feet AGL
Clouds: sky clear below 12,000 feet AGL
Weather: no significant weather observed at this time

METAR text: EGSS 220450Z AUTO 29007KT 250V310 9999 SCT022 03/02 Q1002
Conditions at: EGSS (STANSTED AIRPORT, GB) observed 0450 UTC 22 January 2019
Temperature: 3.0°C (37°F)
Dewpoint: 2.0°C (36°F) [RH = 93%]
Pressure (altimeter): 29.59 inches Hg (1002.0 mb)
Winds: from the WNW (290 degrees) at 8 MPH (7 knots; 3.6 m/s)
Visibility: 6 or more miles (10+ km)
Ceiling: at least 12,000 feet AGL
Clouds: scattered clouds at 2200 feet AGL
Weather: no significant weather observed at this time

METAR text: EGSS 220420Z AUTO 25009KT 230V300 9999 BKN009/// BKN018/// OVC023/// //////TCU 04/04 Q1002
Conditions at: EGSS (STANSTED AIRPORT, GB) observed 0420 UTC 22 January 2019
Temperature: 4.0°C (39°F)
Dewpoint: 4.0°C (39°F) [RH = 100%]
Pressure (altimeter): 29.59 inches Hg (1002.0 mb)
Winds: from the WSW (250 degrees) at 10 MPH (9 knots; 4.6 m/s)
Visibility: 6 or more miles (10+ km)
Ceiling: 900 feet AGL
Clouds: broken clouds at 900 feet AGL
broken clouds at 1800 feet AGL
overcast cloud deck at 2300 feet AGL
Weather: no significant weather observed at this time

METAR text: EGSS 220350Z AUTO 23009KT 9999 -RA BKN009/// OVC023/// //////TCU 04/04 Q1003
Conditions at: EGSS (STANSTED AIRPORT, GB) observed 0350 UTC 22 January 2019
Temperature: 4.0°C (39°F)
Dewpoint: 4.0°C (39°F) [RH = 100%]
Pressure (altimeter): 29.62 inches Hg (1003.0 mb)
Winds: from the SW (230 degrees) at 10 MPH (9 knots; 4.6 m/s)
Visibility: 6 or more miles (10+ km)
Ceiling: 900 feet AGL
Clouds: broken clouds at 900 feet AGL
overcast cloud deck at 2300 feet AGL
Weather: -RA  (light rain)

METAR text: EGSS 220320Z AUTO 21012KT 7000 -RASN BKN007/// BKN012/// OVC017/// //////TCU 04/04 Q1003 RERA
Conditions at: EGSS (STANSTED AIRPORT, GB) observed 0320 UTC 22 January 2019
Temperature: 4.0°C (39°F)
Dewpoint: 4.0°C (39°F) [RH = 100%]
Pressure (altimeter): 29.62 inches Hg (1003.0 mb)
Winds: from the SSW (210 degrees) at 14 MPH (12 knots; 6.2 m/s)
Visibility: 4 miles ( 7 km)
Ceiling: 700 feet AGL
Clouds: broken clouds at 700 feet AGL
broken clouds at 1200 feet AGL
overcast cloud deck at 1700 feet AGL
Weather: -RA -SN  (light rain, light snow)

METAR text: EGSS 220250Z AUTO 17009KT 3000 RA BKN004/// OVC014/// //////TCU 04/03 Q1004 REDZ
Conditions at: EGSS (STANSTED AIRPORT, GB) observed 0250 UTC 22 January 2019
Temperature: 4.0°C (39°F)
Dewpoint: 3.0°C (37°F) [RH = 93%]
Pressure (altimeter): 29.65 inches Hg (1004.0 mb)
Winds: from the S (170 degrees) at 10 MPH (9 knots; 4.6 m/s)
Visibility: 1.86 miles (2.99 km)
Ceiling: 400 feet AGL
Clouds: broken clouds at 400 feet AGL
overcast cloud deck at 1400 feet AGL
Weather: RA  (moderate rain)

METAR text: EGSS 220220Z AUTO 17012KT 3800 -RADZ BKN005/// OVC015/// //////TCU 04/03 Q1004
Conditions at: EGSS (STANSTED AIRPORT, GB) observed 0220 UTC 22 January 2019
Temperature: 4.0°C (39°F)
Dewpoint: 3.0°C (37°F) [RH = 93%]
Pressure (altimeter): 29.65 inches Hg (1004.0 mb)
Winds: from the S (170 degrees) at 14 MPH (12 knots; 6.2 m/s)
Visibility: 2.36 miles (3.80 km)
Ceiling: 500 feet AGL
Clouds: broken clouds at 500 feet AGL
overcast cloud deck at 1500 feet AGL
Weather: -RA -DZ  (light rain, light drizzle)

METAR text: EGSS 220150Z AUTO 17011KT 6000 -RA BKN008/// OVC018/// //////TCU 04/03 Q1005
Conditions at: EGSS (STANSTED AIRPORT, GB) observed 0150 UTC 22 January 2019
Temperature: 4.0°C (39°F)
Dewpoint: 3.0°C (37°F) [RH = 93%]
Pressure (altimeter): 29.68 inches Hg (1005.0 mb)
Winds: from the S (170 degrees) at 13 MPH (11 knots; 5.7 m/s)
Visibility: 4 miles ( 6 km)
Ceiling: 800 feet AGL
Clouds: broken clouds at 800 feet AGL
overcast cloud deck at 1800 feet AGL
Weather: -RA  (light rain)

Forecast for: EGSS (STANSTED AIRPORT, GB)
Text: TAF EGSS 231101Z 2312/2418 33010KT 3000 BR OVC003
Forecast period: 1200 UTC 23 January 2019 to 1800 UTC 24 January 2019
Forecast type: FROM: standard forecast or significant change
Winds: from the NNW (330 degrees) at 12 MPH (10 knots; 5.1 m/s)
Visibility: 1.86 miles (2.99 km)
Ceiling: 300 feet AGL
Clouds: overcast cloud deck at 300 feet AGL
Weather: BR  (mist)
Text: BECMG 2312/2314 8000 NSW BKN007
Forecast period: 1200 to 1400 UTC 23 January 2019
Forecast type: BECOMING: Conditions expected to become as follows by 1400 UTC 23 January 2019
Winds: from the NNW (330 degrees) at 12 MPH (10 knots; 5.1 m/s)
Visibility: 5 miles (8 km)
Ceiling: 700 feet AGL
Clouds: broken clouds at 700 feet AGL
Weather: NSW  (no significant weather)
Text: BECMG 2314/2317 SCT012
Forecast period: 1400 UTC 23 January 2019 to 0000 UTC 24 January 2019
Forecast type: BECOMING: Conditions expected to become as follows by 1700 UTC 23 January 2019
Winds: from the NNW (330 degrees) at 12 MPH (10 knots; 5.1 m/s)
Visibility: 5 miles (8 km)
Ceiling: at least 12,000 feet AGL
Clouds: scattered clouds at 1200 feet AGL
Weather: NSW  (no significant weather)
Text: PROB40
Forecast period: 1700 to 2300 UTC 23 January 2019
Forecast type: TEMPORARY: The following changes expected for less than half the time period
Visibility: missing
Ceiling: 800 feet AGL
Clouds: broken clouds at 800 feet AGL
Weather: no significant weather forecast for this period
Text: TEMPO 2317/2323 BKN008
Forecast period: 2300 UTC 23 January 2019 to 1800 UTC 24 January 2019
Forecast type: TEMPORARY: The following changes expected for less than half the time period
Visibility: 1.24 miles (2.00 km)
Ceiling: 300 feet AGL
Clouds: broken clouds at 300 feet AGL
Weather: BR  (mist)
Text: TEMPO 2323/2418 2000 BR BKN003
Forecast period: 0000 to 0900 UTC 24 January 2019
Forecast type: BECOMING: Conditions expected to become as follows by 0300 UTC 24 January 2019
Winds: from the W (270 degrees) at 6 MPH (5 knots; 2.6 m/s)
Visibility: 5 miles (8 km)
Ceiling: at least 12,000 feet AGL
Clouds: scattered clouds at 1200 feet AGL
Weather: NSW  (no significant weather)
Text: BECMG 2400/2403 27005KT
Forecast period: 0100 to 0900 UTC 24 January 2019
Forecast type: PROBABLE: 40 percent likelihood of the following during this time
Visibility: 0.19 miles (0.31 km)
Ceiling: 100 feet AGL
Clouds: broken clouds at 100 feet AGL
Weather: FG  (fog)
Text: PROB40 2401/2409 0300 FG BKN001
Forecast period: 0900 to 1800 UTC 24 January 2019
Forecast type: BECOMING: Conditions expected to become as follows by 1200 UTC 24 January 2019
Winds: from the W (270 degrees) at 6 MPH (5 knots; 2.6 m/s)
Visibility: 5 miles (8 km)
Ceiling: 500 feet AGL
Clouds: broken clouds at 500 feet AGL
Weather: NSW  (no significant weather)